x

Cape Elizabeth- 45nm Nw Of Aberdeen, Wa (46041) Wave Buoy

7:50 - Wed 3rd Jun 2015 All times are PDT. -7 hours from GMT.

  • Sig Wave height 3.9ft
  • Swell Direction
  • Peak Period 11s
  • Average Period 9s
  • Wind
    4mph
  • Sea Temp 54°f
  • Air Temp 54°f
  • Sea Pressure 1018.8mb
  • Cape Elizabeth- 45nm Nw Of Aberdeen, Wa
  • Cape Elizabeth- 45nm Nw Of Aberdeen, Wa

More Historic Weather Station data

Upgrade to MSW Pro to gain access to the past 30 days of data for over 8000 Wavebouys and Weather Stations around the globe.

Join Pro

Comparision Forecast

View Surf forecast
   
mer. 06/03 7:50 4ft 11s 9s 4
mph
1018.8mb 54f 54f
6:50 3.5ft 11s 9s 4 7 mph 1018.6mb 54f 54f
5:50 3.5ft 11s 9s 4
mph
1018.5mb 54f 54f
4:50 3.5ft 11s 9s 4 7 mph 1018.4mb 54f 54f
3:50 3.5ft 11s 8s 4 7 mph 1018.5mb 54f 54f
2:50 3.5ft 11s 9s 7
mph
1018.4mb 54f 54f
1:50 3.5ft 11s 8s 4
mph
1018.7mb 54f 54f
12:50 3.5ft 12s 8s  -  2 mph 1018.8mb 54f 53f
mar. 06/02 11:50 3ft 11s 7s 2
mph
1018.8mb 54f 54f
10:50 3ft 12s 7s 4
mph
1018.8mb 54f 54f
9:50 3ft 12s 7s 7
mph
1018.8mb 54f 54f
8:50 3.5ft 12s 7s 7
mph
1018.7mb 54f 54f
7:50 3.5ft 11s 8s 4 7 mph 1018.7mb 54f 53f
6:50 3ft 11s 7s 4 7 mph 1018.7mb 54f 54f
5:50 3ft 13s 7s 9
mph
1018.5mb 54f 54f
4:50 3.5ft 12s 7s 7
mph
1018.3mb 54f 55f
3:50 3.5ft 12s 7s 7
mph
1018.1mb 54f 54f
2:50 3ft 12s 7s 7 9 mph 1018mb 54f 54f
1:50 2.5ft 12s 7s 7
mph
1017.6mb 54f 54f
12:50 2.5ft 12s 7s 4 7 mph 1017.5mb 54f 53f
11:50 3ft 12s  -  4 7 mph 1017.1mb 54f 54f
10:50 2.5ft 12s 6s 4 7 mph 1016.8mb 54f 54f
9:50 3ft 13s 6s 7 9 mph 1016.5mb 54f 54f
8:50 3ft 13s 6s 9
mph
1016.2mb 53f 53f
7:50 3ft 13s 6s 11
mph
1015.9mb 54f 53f
6:50 3ft 13s 7s 9 11 mph 1015.5mb 54f 53f
5:50 3ft 14s 7s 7 9 mph 1015.2mb 54f 53f
4:50 3.5ft 13s 8s 7
mph
1014.9mb 54f 54f
3:50 2.5ft 13s 7s 7
mph
1014.7mb 54f 53f
2:50 2.5ft 13s 7s 4 7 mph 1014.5mb 54f 53f
1:50 3ft 13s 7s 4 7 mph 1014.2mb 54f 53f
12:50 2.5ft 13s 6s 2
mph
1014.2mb 54f 53f
lun. 06/01 11:50 3ft 13s 6s 2 4 mph 1014.2mb 53f 53f
10:50 3ft 13s 7s 2
mph
1014.3mb 53f 53f
9:50 2.5ft 15s 6s 2
mph
1014.3mb 53f 53f
8:50 2.5ft 16s 6s 2 4 mph 1014mb 54f 53f
7:50 3ft 16s 7s 4
mph
1014mb 54f 54f
6:50 3ft 15s 7s 2 4 mph 1014mb 54f 54f
5:50 2.5ft 12s 7s 4 7 mph 1014mb 54f 54f
4:50 2.5ft 13s 7s 4 7 mph 1013.8mb 54f 54f
3:50 2.5ft 14s 7s 7
mph
1013.9mb 54f 54f
2:50 2.5ft 15s 7s 4 7 mph 1013.8mb 54f 54f
1:50 2.5ft 13s 6s 4 7 mph 1013.6mb 54f 54f
12:50 2.5ft 13s 7s 9
mph
1013.6mb 54f 54f
11:50 2.5ft 16s 7s 7
mph
1013.6mb 54f 54f
10:50 2.5ft 14s 6s 7 9 mph 1013.1mb 54f 53f
9:50 2.5ft 14s 6s 4 7 mph 1012.9mb 53f 53f
8:50 3ft 14s 6s 4 7 mph 1012.7mb 53f 53f
7:50 3ft 14s 5s 4
mph
1012.6mb 53f 53f
6:50 3ft 14s 6s 9
mph
1012.4mb 53f 52f
5:50 3ft 14s 6s 11 13 mph 1012.1mb 53f 52f
4:50 3ft 16s 6s 7
mph
1012mb 53f 52f
3:50 2.5ft 11s 6s 2 4 mph 1011.6mb 53f 52f
2:50 2.5ft 13s 6s 4
mph
1011.1mb 53f 52f
1:50 2.5ft 14s 6s 7 13 mph 1010.6mb 53f 52f
12:50 2.5ft 14s 5s 11 13 mph 1010.1mb 53f 52f
dim. 05/31 11:50 2.5ft 14s 6s 9 11 mph 1009.6mb 53f 52f
10:50 3.5ft 14s 5s 9 11 mph 1009.2mb 53f 52f
9:50 3.5ft 15s 5s 11 13 mph 1009.3mb 53f 52f
8:50 3.5ft 14s 5s 13
mph
1009.4mb 53f 53f
7:50 3.5ft 14s 5s 16
mph
1009.5mb 53f 53f
6:50 4ft 11s 5s 13 18 mph 1009.9mb 53f 53f
5:50 3.5ft 12s 5s 16 18 mph 1009.9mb 53f 53f
4:50 3.5ft 11s 5s 13 16 mph 1010.2mb 53f 53f
3:50 3.5ft 11s 6s 13 16 mph 1010.2mb 53f 53f
2:50 3.5ft 12s 6s 13 18 mph 1010.7mb 53f 53f
1:50 3ft 14s 6s 13 16 mph 1011.4mb 53f 53f
12:50 3ft 15s 7s 11 13 mph 1011.9mb 53f 52f
11:50 3.5ft 13s 7s 11
mph
1012.2mb 53f 52f
10:50 3.5ft 13s 7s 9 11 mph 1012.4mb 53f 52f
9:50 3.5ft 13s 6s 7 9 mph 1013mb 53f 52f
8:50 3.5ft 15s 6s 9 11 mph 1012.9mb 53f 51f
7:50 3.5ft 7s 6s 11 13 mph 1012.5mb 53f 51f
6:50 3.5ft 12s 6s 9 11 mph 1012.9mb 53f 51f
5:50 3.5ft 14s 7s 11 13 mph 1013.2mb 53f 51f
4:50 3.5ft 15s 6s 9 13 mph 1013.2mb 53f 51f
3:50 3.5ft 14s 6s 11 13 mph 1013.4mb 53f 51f
2:50 3.5ft 13s 6s 9 13 mph 1014.2mb 53f 51f
1:50 4ft 14s 6s 11 13 mph 1014.2mb 54f 51f
12:50 3.5ft 15s 6s 11 13 mph 1014.4mb 54f 51f
sam. 05/30 11:50 3.5ft 7s 6s 11 16 mph 1014.4mb 54f 52f
10:50 4ft 12s 7s 9 13 mph 1014.8mb 54f 52f
9:50 4ft 7s 7s 9 13 mph 1014.5mb 54f 52f
8:50 4.5ft 8s 7s 9 13 mph 1014.5mb 54f 53f
7:50 4.5ft 15s 7s 7 11 mph 1014.8mb 54f 53f
6:50 4.5ft 8s 7s 11 13 mph 1014.9mb 54f 53f
5:50 4ft 15s 7s 9 11 mph 1015.3mb 54f 53f
4:50 4ft 15s 6s 9
mph
1015.8mb 55f 53f